createdAt,value
2023-04-16T00:00:46.556Z,99974.48
2023-04-16T00:03:35.267Z,99975.33
2023-04-16T00:06:04.483Z,99971.63
2023-04-16T00:08:37.484Z,99969.32
2023-04-16T00:11:06.363Z,99971.45
2023-04-16T00:13:35.856Z,99974.25
2023-04-16T00:16:08.335Z,99977.95
2023-04-16T00:18:38.547Z,99977.86
2023-04-16T00:21:15.234Z,99978.48
2023-04-16T00:23:53.145Z,99976.29
2023-04-16T00:26:44.438Z,99980.17
2023-04-16T00:29:13.552Z,99980.02
2023-04-16T00:31:44.704Z,99975.38
2023-04-16T00:34:16.313Z,99970.30
2023-04-16T00:36:52.616Z,99972.31
2023-04-16T00:39:23.744Z,99970.36
2023-04-16T00:41:52.651Z,99973.23
2023-04-16T00:44:21.426Z,99973.30
2023-04-16T00:46:56.769Z,99975.06
2023-04-16T00:49:28.267Z,99976.15
2023-04-16T00:52:04.284Z,99972.80
2023-04-16T00:54:38.899Z,99974.36
2023-04-16T00:57:10.359Z,99978.81
2023-04-16T00:59:41.906Z,99974.20
2023-04-16T01:02:17.388Z,99974.81
2023-04-16T01:04:52.185Z,99967.34
2023-04-16T01:07:20.970Z,99975.70
2023-04-16T01:09:49.756Z,99972.16
2023-04-16T01:12:28.587Z,99973.93
2023-04-16T01:15:13.363Z,99975.44
2023-04-16T01:17:51.418Z,99975.04
2023-04-16T01:20:26.291Z,99976.16
2023-04-16T01:23:02.565Z,99979.54
2023-04-16T01:25:31.821Z,99984.66
2023-04-16T01:28:03.100Z,99989.88
2023-04-16T01:30:31.995Z,99994.55
2023-04-16T01:33:14.715Z,99995.38
2023-04-16T01:35:46.461Z,99995.02
2023-04-16T01:38:17.500Z,99995.63
2023-04-16T01:40:59.655Z,99995.23
2023-04-16T01:43:30.854Z,99998.13
2023-04-16T01:46:15.840Z,100001.47
2023-04-16T01:48:45.277Z,99999.31
2023-04-16T01:51:17.187Z,100003.79
2023-04-16T01:53:47.089Z,100001.58
2023-04-16T01:56:25.182Z,100003.32
2023-04-16T01:58:54.019Z,100004.08
2023-04-16T02:01:32.934Z,100006.41
2023-04-16T02:04:06.751Z,100005.16
2023-04-16T02:06:35.322Z,100009.32
2023-04-16T02:09:15.682Z,100006.88
2023-04-16T02:11:46.959Z,100008.65
2023-04-16T02:14:21.331Z,100008.29
2023-04-16T02:16:55.624Z,100008.59
2023-04-16T02:19:44.517Z,100009.73
2023-04-16T02:22:14.933Z,100012.66
2023-04-16T02:24:51.508Z,100015.80
2023-04-16T02:27:35.047Z,100018.33
2023-04-16T02:30:13.245Z,100017.93
2023-04-16T02:32:51.628Z,100021.97
2023-04-16T02:35:23.411Z,100021.59
2023-04-16T02:37:54.457Z,100023.04
2023-04-16T02:40:26.932Z,100023.08
2023-04-16T02:43:00.648Z,100023.77
2023-04-16T02:45:37.767Z,100028.28
2023-04-16T02:48:10.192Z,100027.14
2023-04-16T02:50:39.099Z,100029.12
2023-04-16T02:53:14.018Z,100030.19
2023-04-16T02:55:52.743Z,100028.35
2023-04-16T02:58:26.677Z,100029.77
2023-04-16T03:01:00.739Z,100031.02
2023-04-16T03:03:35.053Z,100035.39
2023-04-16T03:06:10.426Z,100031.98
2023-04-16T03:08:44.848Z,100039.57
2023-04-16T03:11:22.227Z,100041.70
2023-04-16T03:14:19.033Z,100045.98
2023-04-16T03:16:47.992Z,100048.35
2023-04-16T03:19:22.810Z,100053.73
2023-04-16T03:22:21.901Z,100058.32
2023-04-16T03:24:56.727Z,100063.98
2023-04-16T03:27:34.640Z,100067.98
2023-04-16T03:30:20.930Z,100066.81
2023-04-16T03:32:52.330Z,100071.80
2023-04-16T03:35:28.440Z,100073.33
2023-04-16T03:37:57.353Z,100074.30
2023-04-16T03:40:32.053Z,100080.52
2023-04-16T03:43:04.359Z,100084.75
2023-04-16T03:45:45.308Z,100075.27
2023-04-16T03:48:21.825Z,100091.70
2023-04-16T03:50:50.504Z,100089.17
2023-04-16T03:53:26.213Z,100089.73
2023-04-16T03:55:57.776Z,100092.29
2023-04-16T03:58:26.766Z,100093.98
2023-04-16T04:00:58.722Z,100098.89
2023-04-16T04:03:34.196Z,100100.67
2023-04-16T04:06:15.890Z,100105.88
2023-04-16T04:08:50.183Z,100112.63
2023-04-16T04:11:22.150Z,100115.93
2023-04-16T04:13:53.699Z,100119.86
2023-04-16T04:16:30.011Z,100123.91
2023-04-16T04:19:04.669Z,100123.56
2023-04-16T04:21:33.573Z,100125.96
2023-04-16T04:24:04.921Z,100123.31
2023-04-16T04:26:39.443Z,100127.42
2023-04-16T04:29:17.046Z,100127.34
2023-04-16T04:31:48.554Z,100129.25
2023-04-16T04:34:27.943Z,100131.02
2023-04-16T04:36:59.992Z,100135.31
2023-04-16T04:39:32.673Z,100139.73
2023-04-16T04:42:03.453Z,100139.52
2023-04-16T04:44:37.732Z,100141.95
2023-04-16T04:47:15.059Z,100144.27
2023-04-16T04:49:53.113Z,100146.06
2023-04-16T04:52:22.316Z,100147.19
2023-04-16T04:55:05.956Z,100150.45
2023-04-16T04:57:46.616Z,100153.00
2023-04-16T05:00:38.664Z,100156.96
2023-04-16T05:03:12.531Z,100158.78
2023-04-16T05:05:44.031Z,100159.61
2023-04-16T05:08:15.989Z,100161.00
2023-04-16T05:10:47.381Z,100161.63
2023-04-16T05:13:36.292Z,100164.16
2023-04-16T05:16:08.265Z,100165.20
2023-04-16T05:18:45.691Z,100169.05
2023-04-16T05:21:19.768Z,100169.34
2023-04-16T05:23:53.770Z,100176.20
2023-04-16T05:26:38.491Z,100178.21
2023-04-16T05:29:10.912Z,100185.57
2023-04-16T05:31:58.751Z,100185.10
2023-04-16T05:34:32.953Z,100184.88
2023-04-16T05:37:04.217Z,100190.46
2023-04-16T05:39:35.970Z,100195.02
2023-04-16T05:42:10.688Z,100199.36
2023-04-16T05:44:40.393Z,100204.23
2023-04-16T05:47:25.836Z,100210.52
2023-04-16T05:50:20.357Z,100216.98
2023-04-16T05:52:57.047Z,100219.01
2023-04-16T05:55:37.023Z,100222.61
2023-04-16T05:58:30.232Z,100223.98
2023-04-16T06:01:07.844Z,100226.86
2023-04-16T06:04:02.343Z,100224.83
2023-04-16T06:06:31.742Z,100225.86
2023-04-16T06:09:19.373Z,100228.89
2023-04-16T06:11:53.293Z,100229.54
2023-04-16T06:14:24.633Z,100231.08
2023-04-16T06:16:59.558Z,100235.18
2023-04-16T06:19:37.468Z,100238.13
2023-04-16T06:22:10.242Z,100239.98
2023-04-16T06:24:39.575Z,100246.30
2023-04-16T06:27:14.784Z,100239.59
2023-04-16T06:29:58.619Z,100251.63
2023-04-16T06:32:35.264Z,100250.83
2023-04-16T06:35:15.186Z,100249.30
2023-04-16T06:37:51.208Z,100248.80
2023-04-16T06:40:43.538Z,100248.56
2023-04-16T06:43:16.414Z,100248.20
2023-04-16T06:45:53.822Z,100248.55
2023-04-16T06:48:37.749Z,100256.52
2023-04-16T06:51:09.638Z,100257.66
2023-04-16T06:53:42.662Z,100256.05
2023-04-16T06:56:14.880Z,100256.70
2023-04-16T06:59:06.502Z,100257.24
2023-04-16T07:01:38.787Z,100259.31
2023-04-16T07:04:16.738Z,100258.18
2023-04-16T07:06:52.522Z,100266.00
2023-04-16T07:09:27.254Z,100270.73
2023-04-16T07:12:09.523Z,100271.58
2023-04-16T07:14:45.056Z,100275.02
2023-04-16T07:17:20.235Z,100277.85
2023-04-16T07:19:59.485Z,100284.50
2023-04-16T07:22:36.664Z,100285.43
2023-04-16T07:25:15.173Z,100288.95
2023-04-16T07:27:52.684Z,100291.86
2023-04-16T07:30:24.055Z,100294.24
2023-04-16T07:32:56.790Z,100298.89
2023-04-16T07:35:31.636Z,100300.79
2023-04-16T07:38:03.209Z,100297.30
2023-04-16T07:40:52.453Z,100301.52
2023-04-16T07:43:21.654Z,100301.73
2023-04-16T07:45:53.600Z,100306.29
2023-04-16T07:48:28.773Z,100311.45
2023-04-16T07:50:58.677Z,100315.29
2023-04-16T07:53:28.051Z,100316.93
2023-04-16T07:56:00.559Z,100319.42
2023-04-16T07:58:29.533Z,100319.39
2023-04-16T08:01:01.834Z,100321.64
2023-04-16T08:03:32.270Z,100320.86
2023-04-16T08:06:01.574Z,100323.64
2023-04-16T08:08:31.059Z,100331.78
2023-04-16T08:11:04.126Z,100336.08
2023-04-16T08:13:33.902Z,100336.21
2023-04-16T08:16:06.762Z,100337.42
2023-04-16T08:18:35.924Z,100338.96
2023-04-16T08:21:05.019Z,100341.73
2023-04-16T08:23:37.092Z,100340.51
2023-04-16T08:26:06.587Z,100342.47
2023-04-16T08:28:36.098Z,100340.92
2023-04-16T08:31:11.968Z,100343.94
2023-04-16T08:33:41.609Z,100347.95
2023-04-16T08:36:11.098Z,100348.58
2023-04-16T08:38:40.733Z,100357.63
2023-04-16T08:41:13.448Z,100356.76
2023-04-16T08:43:49.204Z,100362.67
2023-04-16T08:46:23.361Z,100360.03
2023-04-16T08:48:56.543Z,100359.95
2023-04-16T08:51:31.707Z,100357.20
2023-04-16T08:54:05.001Z,100362.35
2023-04-16T08:56:43.080Z,100363.61
2023-04-16T08:59:12.910Z,100363.65
2023-04-16T09:01:42.294Z,100365.87
2023-04-16T09:04:11.753Z,100366.27
2023-04-16T09:06:50.965Z,100373.41
2023-04-16T09:09:22.167Z,100372.92
2023-04-16T09:11:55.136Z,100371.27
2023-04-16T09:14:24.276Z,100371.14
2023-04-16T09:16:55.994Z,100374.15
2023-04-16T09:19:27.587Z,100374.36
2023-04-16T09:21:57.037Z,100376.31
2023-04-16T09:24:47.346Z,100377.86
2023-04-16T09:27:17.482Z,100377.77
2023-04-16T09:29:52.319Z,100374.23
2023-04-16T09:32:30.341Z,100372.95
2023-04-16T09:35:01.617Z,100378.51
2023-04-16T09:37:31.978Z,100376.58
2023-04-16T09:40:04.841Z,100376.14
2023-04-16T09:42:37.599Z,100379.06
2023-04-16T09:45:09.005Z,100377.91
2023-04-16T09:47:43.977Z,100373.52
2023-04-16T09:50:18.609Z,100377.38
2023-04-16T09:52:53.785Z,100375.92
2023-04-16T09:55:28.119Z,100373.92
2023-04-16T09:58:03.044Z,100372.52
2023-04-16T10:00:31.945Z,100377.67
2023-04-16T10:03:07.803Z,100377.45
2023-04-16T10:05:38.836Z,100377.67
2023-04-16T10:08:17.643Z,100380.99
2023-04-16T10:10:46.727Z,100383.10
2023-04-16T10:13:17.879Z,100383.55
2023-04-16T10:15:47.034Z,100384.77
2023-04-16T10:18:16.803Z,100379.77
2023-04-16T10:20:46.309Z,100372.71
2023-04-16T10:23:16.358Z,100375.67
2023-04-16T10:25:57.542Z,100375.92
2023-04-16T10:28:27.737Z,100375.14
2023-04-16T10:30:59.034Z,100374.31
2023-04-16T10:33:33.281Z,100376.30
2023-04-16T10:36:23.352Z,100380.51
2023-04-16T10:38:54.121Z,100378.66
2023-04-16T10:41:23.500Z,100375.41
2023-04-16T10:43:52.908Z,100376.77
2023-04-16T10:46:23.609Z,100372.38
2023-04-16T10:49:00.208Z,100371.77
2023-04-16T10:51:28.931Z,100374.71
2023-04-16T10:54:10.381Z,100371.88
2023-04-16T10:56:38.862Z,100370.06
2023-04-16T10:59:11.963Z,100368.05
2023-04-16T11:01:46.125Z,100371.16
2023-04-16T11:04:20.828Z,100370.60
2023-04-16T11:07:04.572Z,100373.55
2023-04-16T11:09:54.440Z,100368.52
2023-04-16T11:12:44.987Z,100369.69
2023-04-16T11:15:19.624Z,100366.77
2023-04-16T11:17:52.061Z,100368.86
2023-04-16T11:20:29.099Z,100375.36
2023-04-16T11:22:58.275Z,100375.80
2023-04-16T11:25:34.469Z,100370.70
2023-04-16T11:28:03.939Z,100370.91
2023-04-16T11:30:37.885Z,100374.30
2023-04-16T11:33:09.397Z,100366.13
2023-04-16T11:35:41.771Z,100367.31
2023-04-16T11:38:10.229Z,100369.15
2023-04-16T11:40:42.559Z,100365.46
2023-04-16T11:43:15.829Z,100370.73
2023-04-16T11:45:57.328Z,100368.91
2023-04-16T11:48:25.873Z,100369.40
2023-04-16T11:50:58.180Z,100372.84
2023-04-16T11:53:27.375Z,100370.89
2023-04-16T11:55:55.708Z,100366.40
2023-04-16T11:58:24.031Z,100364.40
2023-04-16T12:00:58.257Z,100364.11
2023-04-16T12:03:47.209Z,100365.91
2023-04-16T12:06:15.757Z,100364.29
2023-04-16T12:08:44.888Z,100368.71
2023-04-16T12:11:13.256Z,100368.71
2023-04-16T12:13:41.645Z,100368.64
2023-04-16T12:16:19.835Z,100366.36
2023-04-16T12:19:03.079Z,100366.64
2023-04-16T12:22:00.936Z,100367.59
2023-04-16T12:24:32.597Z,100365.57
2023-04-16T12:27:03.248Z,100368.59
2023-04-16T12:29:32.340Z,100367.30
2023-04-16T12:32:02.035Z,100369.34
2023-04-16T12:34:48.893Z,100369.44
2023-04-16T12:37:18.150Z,100363.45
2023-04-16T12:39:48.070Z,100362.79
2023-04-16T12:42:16.865Z,100361.44
2023-04-16T12:44:47.054Z,100362.61
2023-04-16T12:47:15.963Z,100357.18
2023-04-16T12:49:45.186Z,100344.46
2023-04-16T12:52:13.656Z,100357.63
2023-04-16T12:54:42.237Z,100357.02
2023-04-16T12:57:12.252Z,100353.14
2023-04-16T12:59:40.525Z,100350.81
2023-04-16T13:02:09.166Z,100352.45
2023-04-16T13:04:38.028Z,100354.52
2023-04-16T13:07:06.988Z,100354.33
2023-04-16T13:09:37.763Z,100350.77
2023-04-16T13:12:08.274Z,100350.27
2023-04-16T13:14:37.380Z,100349.86
2023-04-16T13:17:06.116Z,100347.95
2023-04-16T13:19:34.928Z,100349.66
2023-04-16T13:22:04.140Z,100351.34
2023-04-16T13:24:33.119Z,100345.16
2023-04-16T13:27:01.991Z,100344.27
2023-04-16T13:29:31.112Z,100343.96
2023-04-16T13:31:59.717Z,100343.20
2023-04-16T13:34:28.979Z,100341.09
2023-04-16T13:36:57.453Z,100340.23
2023-04-16T13:39:26.070Z,100338.61
2023-04-16T13:41:54.673Z,100337.80
2023-04-16T13:44:23.826Z,100336.18
2023-04-16T13:46:53.897Z,100334.44
2023-04-16T13:49:23.033Z,100332.51
2023-04-16T13:51:51.525Z,100330.60
2023-04-16T13:54:19.902Z,100332.84
2023-04-16T13:56:51.511Z,100333.77
2023-04-16T13:59:20.453Z,100330.44
2023-04-16T14:01:48.957Z,100337.42
2023-04-16T14:04:17.597Z,100335.65
2023-04-16T14:06:46.609Z,100336.15
2023-04-16T14:09:15.271Z,100328.98
2023-04-16T14:11:43.806Z,100339.31
2023-04-16T14:14:12.665Z,100332.48
2023-04-16T14:16:41.415Z,100334.02
2023-04-16T14:19:11.062Z,100333.48
2023-04-16T14:21:39.846Z,100330.30
2023-04-16T14:24:09.358Z,100332.36
2023-04-16T14:26:37.815Z,100329.95
2023-04-16T14:29:07.120Z,100330.27
2023-04-16T14:31:35.837Z,100325.04
2023-04-16T14:34:04.403Z,100333.83
2023-04-16T14:36:33.291Z,100337.30
2023-04-16T14:39:02.394Z,100331.86
2023-04-16T14:41:31.167Z,100335.10
2023-04-16T14:44:00.082Z,100336.39
2023-04-16T14:46:28.534Z,100338.69
2023-04-16T14:48:57.032Z,100338.10
2023-04-16T14:51:27.579Z,100337.95
2023-04-16T14:53:56.871Z,100338.58
2023-04-16T14:56:26.377Z,100338.63
2023-04-16T14:58:55.272Z,100340.61
2023-04-16T15:01:24.656Z,100342.54
2023-04-16T15:03:57.118Z,100343.37
2023-04-16T15:06:26.548Z,100333.91
2023-04-16T15:08:54.887Z,100344.20
2023-04-16T15:11:23.582Z,100344.60
2023-04-16T15:13:52.609Z,100346.73
2023-04-16T15:16:21.320Z,100343.93
2023-04-16T15:18:50.709Z,100343.39
2023-04-16T15:21:19.289Z,100344.66
2023-04-16T15:23:47.753Z,100347.84
2023-04-16T15:26:16.561Z,100350.58
2023-04-16T15:28:45.341Z,100350.60
2023-04-16T15:31:13.816Z,100349.30
2023-04-16T15:33:42.160Z,100352.27
2023-04-16T15:36:11.703Z,100351.46
2023-04-16T15:38:40.152Z,100351.84
2023-04-16T15:41:10.704Z,100352.17
2023-04-16T15:43:40.159Z,100353.81
2023-04-16T15:46:09.285Z,100357.20
2023-04-16T15:48:37.992Z,100353.04
2023-04-16T15:51:06.815Z,100357.57
2023-04-16T15:53:35.363Z,100359.08
2023-04-16T15:56:03.954Z,100358.98
2023-04-16T15:58:32.471Z,100358.18
2023-04-16T16:01:01.033Z,100358.09
2023-04-16T16:03:32.445Z,100361.28
2023-04-16T16:06:06.929Z,100349.63
2023-04-16T16:08:42.687Z,100363.49
2023-04-16T16:11:15.592Z,100367.08
2023-04-16T16:13:45.772Z,100371.62
2023-04-16T16:16:15.203Z,100374.30
2023-04-16T16:18:48.360Z,100370.39
2023-04-16T16:21:17.250Z,100389.27
2023-04-16T16:23:47.054Z,100396.56
2023-04-16T16:26:15.840Z,100401.73
2023-04-16T16:28:45.157Z,100401.06
2023-04-16T16:31:13.878Z,100403.27
2023-04-16T16:33:43.231Z,100410.77
2023-04-16T16:36:12.766Z,100418.98
2023-04-16T16:38:42.756Z,100426.85
2023-04-16T16:41:11.750Z,100439.63
2023-04-16T16:43:40.651Z,100448.73
2023-04-16T16:46:10.235Z,100452.14
2023-04-16T16:48:39.028Z,100458.44
2023-04-16T16:51:10.852Z,100456.71
2023-04-16T16:53:39.808Z,100465.04
2023-04-16T16:56:08.986Z,100470.04
2023-04-16T16:58:38.188Z,100471.77
2023-04-16T17:05:01.429Z,100475.70
2023-04-16T17:07:55.548Z,100477.06
2023-04-16T17:10:39.939Z,100478.91
2023-04-16T17:13:09.369Z,100484.80
2023-04-16T17:15:39.022Z,100484.07
2023-04-16T17:18:08.497Z,100480.79
2023-04-16T17:20:37.784Z,100480.20
2023-04-16T17:23:07.591Z,100483.64
2023-04-16T17:25:37.114Z,100489.13
2023-04-16T17:28:08.447Z,100494.90
2023-04-16T17:30:39.269Z,100501.39
2023-04-16T17:33:08.923Z,100509.33
2023-04-16T17:35:42.092Z,100509.20
2023-04-16T17:38:17.017Z,100514.64
2023-04-16T17:40:46.408Z,100518.18
2023-04-16T17:43:15.702Z,100523.61
2023-04-16T17:45:45.160Z,100523.39
2023-04-16T17:48:16.042Z,100522.80
2023-04-16T17:50:46.275Z,100521.11
2023-04-16T17:53:15.959Z,100515.84
2023-04-16T17:55:56.707Z,100514.97
2023-04-16T17:58:28.173Z,100513.78
2023-04-16T18:00:58.784Z,100509.34
2023-04-16T18:03:33.929Z,100508.05
2023-04-16T18:06:05.425Z,100505.39
2023-04-16T18:08:39.038Z,100508.17
2023-04-16T18:11:10.173Z,100506.61
2023-04-16T18:13:41.834Z,100507.92
2023-04-16T18:16:17.214Z,100506.21
2023-04-16T18:18:46.490Z,100518.11
2023-04-16T18:21:15.622Z,100519.70
2023-04-16T18:23:48.908Z,100525.34
2023-04-16T18:26:22.397Z,100523.98
2023-04-16T18:28:53.421Z,100530.05
2023-04-16T18:31:23.262Z,100529.63
2023-04-16T18:33:58.027Z,100532.23
2023-04-16T18:36:27.634Z,100538.83
2023-04-16T18:39:01.717Z,100543.05
2023-04-16T18:41:31.550Z,100543.88
2023-04-16T18:44:01.053Z,100546.74
2023-04-16T18:46:30.685Z,100546.33
2023-04-16T18:49:00.671Z,100547.91
2023-04-16T18:51:30.714Z,100547.91
2023-04-16T18:53:59.681Z,100552.63
2023-04-16T18:56:31.436Z,100554.98
2023-04-16T18:59:00.637Z,100556.64
2023-04-16T19:01:29.992Z,100556.05
2023-04-16T19:03:59.053Z,100558.52
2023-04-16T19:06:29.498Z,100560.54
2023-04-16T19:08:58.379Z,100563.59
2023-04-16T19:11:27.262Z,100562.41
2023-04-16T19:13:57.788Z,100568.17
2023-04-16T19:16:29.673Z,100569.84
2023-04-16T19:18:58.612Z,100569.38
2023-04-16T19:21:28.227Z,100572.94
2023-04-16T19:23:56.897Z,100574.52
2023-04-16T19:26:27.381Z,100576.23
2023-04-16T19:28:56.885Z,100575.95
2023-04-16T19:31:26.687Z,100578.46
2023-04-16T19:33:58.539Z,100578.37
2023-04-16T19:36:27.950Z,100579.92
2023-04-16T19:38:56.793Z,100577.93
2023-04-16T19:41:26.375Z,100580.66
2023-04-16T19:43:55.655Z,100580.94
2023-04-16T19:46:26.445Z,100583.40
2023-04-16T19:48:56.987Z,100585.85
2023-04-16T19:51:27.394Z,100586.80
2023-04-16T19:53:56.638Z,100588.51
2023-04-16T19:56:25.928Z,100591.86
2023-04-16T19:58:56.240Z,100588.66
2023-04-16T20:01:25.371Z,100592.24
2023-04-16T20:03:55.085Z,100592.60
2023-04-16T20:06:24.485Z,100589.68
2023-04-16T20:08:53.450Z,100592.90
2023-04-16T20:11:22.762Z,100593.10
2023-04-16T20:13:51.365Z,100595.89
2023-04-16T20:16:24.190Z,100590.59
2023-04-16T20:18:54.595Z,100591.40
2023-04-16T20:21:24.274Z,100589.55
2023-04-16T20:23:53.366Z,100592.42
2023-04-16T20:26:24.509Z,100595.91
2023-04-16T20:28:53.750Z,100600.59
2023-04-16T20:31:23.048Z,100596.27
2023-04-16T20:33:51.995Z,100599.54
2023-04-16T20:36:21.889Z,100597.16
2023-04-16T20:38:53.819Z,100595.98
2023-04-16T20:41:25.516Z,100583.59
2023-04-16T20:43:54.899Z,100592.05
2023-04-16T20:46:30.622Z,100591.45
2023-04-16T20:49:04.721Z,100588.30
2023-04-16T20:51:34.084Z,100585.38
2023-04-16T20:54:04.759Z,100588.89
2023-04-16T20:56:34.330Z,100568.60
2023-04-16T20:59:14.066Z,100587.67
2023-04-16T21:01:44.607Z,100584.65
2023-04-16T21:04:18.741Z,100589.09
2023-04-16T21:06:51.602Z,100589.27
2023-04-16T21:09:22.170Z,100589.11
2023-04-16T21:11:55.253Z,100591.70
2023-04-16T21:14:25.139Z,100593.05
2023-04-16T21:16:54.962Z,100592.63
2023-04-16T21:19:23.617Z,100578.02
2023-04-16T21:21:52.437Z,100590.61
2023-04-16T21:24:21.420Z,100590.45
2023-04-16T21:26:49.992Z,100587.13
2023-04-16T21:29:21.139Z,100588.85
2023-04-16T21:31:49.683Z,100588.06
2023-04-16T21:34:21.069Z,100593.42
2023-04-16T21:36:52.328Z,100590.28
2023-04-16T21:39:31.342Z,100589.10
2023-04-16T21:42:00.051Z,100588.80
2023-04-16T21:44:28.733Z,100588.81
2023-04-16T21:46:57.414Z,100586.67
2023-04-16T21:49:28.648Z,100588.11
2023-04-16T21:51:59.442Z,100591.92
2023-04-16T21:54:28.268Z,100591.94
2023-04-16T21:56:58.495Z,100591.02
2023-04-16T21:59:27.089Z,100594.96
2023-04-16T22:01:56.167Z,100594.64
2023-04-16T22:04:26.573Z,100595.33
2023-04-16T22:06:57.999Z,100595.22
2023-04-16T22:09:26.536Z,100594.74
2023-04-16T22:11:57.977Z,100593.89
2023-04-16T22:14:26.795Z,100598.23
2023-04-16T22:16:56.836Z,100599.14
2023-04-16T22:19:28.379Z,100602.88
2023-04-16T22:21:57.442Z,100594.25
2023-04-16T22:24:28.299Z,100593.23
2023-04-16T22:26:57.396Z,100589.36
2023-04-16T22:29:26.674Z,100591.39
2023-04-16T22:31:55.698Z,100591.63
2023-04-16T22:34:24.661Z,100593.95
2023-04-16T22:36:56.564Z,100590.34
2023-04-16T22:39:25.754Z,100591.66
2023-04-16T22:41:54.587Z,100587.12
2023-04-16T22:44:23.405Z,100588.80
2023-04-16T22:47:06.110Z,100589.41
2023-04-16T22:49:35.206Z,100586.55
2023-04-16T22:52:03.952Z,100586.66
2023-04-16T22:54:37.795Z,100587.94
2023-04-16T22:57:06.382Z,100587.84
2023-04-16T22:59:34.798Z,100585.08
2023-04-16T23:02:03.516Z,100580.55
2023-04-16T23:04:33.048Z,100580.27
2023-04-16T23:07:10.956Z,100582.92
2023-04-16T23:09:44.579Z,100583.52
2023-04-16T23:12:16.018Z,100584.32
2023-04-16T23:14:46.213Z,100586.36
2023-04-16T23:17:20.278Z,100583.95
2023-04-16T23:19:51.615Z,100585.83
2023-04-16T23:22:20.473Z,100582.34
2023-04-16T23:24:49.275Z,100582.23
2023-04-16T23:27:32.700Z,100584.30
2023-04-16T23:30:01.564Z,100579.58
2023-04-16T23:32:30.602Z,100583.95
2023-04-16T23:35:02.361Z,100582.25
2023-04-16T23:37:36.376Z,100577.08
2023-04-16T23:40:08.360Z,100580.09
2023-04-16T23:42:37.110Z,100582.52
2023-04-16T23:45:12.460Z,100584.23
2023-04-16T23:47:44.705Z,100586.10
2023-04-16T23:50:16.064Z,100587.34
2023-04-16T23:52:44.877Z,100586.16
2023-04-16T23:55:18.738Z,100588.73
2023-04-16T23:57:47.857Z,100585.21
